createdAt,value
2022-07-30T00:00:08.970Z,3.35
2022-07-30T00:03:14.147Z,9.00
2022-07-30T00:06:19.189Z,8.73
2022-07-30T00:09:24.382Z,5.35
2022-07-30T00:12:29.771Z,5.88
2022-07-30T00:15:37.618Z,6.90
2022-07-30T00:18:42.651Z,3.30
2022-07-30T00:21:48.230Z,7.78
2022-07-30T00:24:53.729Z,6.63
2022-07-30T00:27:58.926Z,6.68
2022-07-30T00:31:06.752Z,6.32
2022-07-30T00:34:13.156Z,4.05
2022-07-30T00:37:18.452Z,3.70
2022-07-30T00:40:23.994Z,3.30
2022-07-30T00:43:29.065Z,5.70
2022-07-30T00:46:37.455Z,6.15
2022-07-30T00:49:44.387Z,5.90
2022-07-30T00:52:49.770Z,4.50
2022-07-30T00:55:54.986Z,4.43
2022-07-30T00:59:00.171Z,5.50
2022-07-30T01:02:08.207Z,7.85
2022-07-30T01:05:13.708Z,8.23
2022-07-30T01:08:19.667Z,4.07
2022-07-30T01:11:25.348Z,8.20
2022-07-30T01:14:30.502Z,8.57
2022-07-30T01:17:38.637Z,7.07
2022-07-30T01:20:46.403Z,6.35
2022-07-30T01:23:53.957Z,5.45
2022-07-30T01:27:02.637Z,5.47
2022-07-30T01:30:10.437Z,9.73
2022-07-30T01:33:19.793Z,10.55
2022-07-30T01:36:26.089Z,5.28
2022-07-30T01:39:31.365Z,7.10
2022-07-30T01:42:39.480Z,6.57
2022-07-30T01:45:45.121Z,5.20
2022-07-30T01:48:53.111Z,6.35
2022-07-30T01:51:58.880Z,6.10
2022-07-30T01:55:05.270Z,9.15
2022-07-30T01:58:26.160Z,4.13
2022-07-30T02:01:33.670Z,5.43
2022-07-30T02:04:39.307Z,7.47
2022-07-30T02:07:48.874Z,4.93
2022-07-30T02:10:55.656Z,5.22
2022-07-30T02:14:03.298Z,4.22
2022-07-30T02:17:18.391Z,5.20
2022-07-30T02:20:28.192Z,4.75
2022-07-30T02:23:36.362Z,4.65
2022-07-30T02:26:42.091Z,4.43
2022-07-30T02:29:50.585Z,5.25
2022-07-30T02:32:58.318Z,3.03
2022-07-30T02:36:04.020Z,6.90
2022-07-30T02:39:16.959Z,5.45
2022-07-30T02:42:22.735Z,3.70
2022-07-30T02:45:31.027Z,4.35
2022-07-30T02:48:36.861Z,3.60
2022-07-30T02:51:42.479Z,3.75
2022-07-30T02:54:48.524Z,4.18
2022-07-30T02:57:54.769Z,5.07
2022-07-30T03:01:03.579Z,3.15
2022-07-30T03:04:09.246Z,4.63
2022-07-30T03:07:15.097Z,4.90
2022-07-30T03:10:20.594Z,4.72
2022-07-30T03:13:26.696Z,4.82
2022-07-30T03:16:36.842Z,6.40
2022-07-30T03:19:43.765Z,10.57
2022-07-30T03:22:54.212Z,5.90
2022-07-30T03:26:00.923Z,3.97
2022-07-30T03:29:06.360Z,3.83
2022-07-30T03:32:15.007Z,3.40
2022-07-30T03:35:22.109Z,9.30
2022-07-30T03:38:28.392Z,4.03
2022-07-30T03:41:34.907Z,5.40
2022-07-30T03:44:41.789Z,8.00
2022-07-30T03:47:49.787Z,4.22
2022-07-30T03:50:55.103Z,4.60
2022-07-30T03:54:01.985Z,2.10
2022-07-30T03:57:20.409Z,2.15
2022-07-30T04:00:27.582Z,2.85
2022-07-30T04:03:36.252Z,4.40
2022-07-30T04:06:43.851Z,6.32
2022-07-30T04:09:53.258Z,4.38
2022-07-30T04:13:16.365Z,5.55
2022-07-30T04:16:39.497Z,4.38
2022-07-30T04:19:53.619Z,3.03
2022-07-30T04:23:00.650Z,5.68
2022-07-30T04:26:06.128Z,4.15
2022-07-30T04:29:14.308Z,3.40
2022-07-30T04:32:23.835Z,4.55
2022-07-30T04:35:50.561Z,2.20
2022-07-30T04:39:04.391Z,6.20
2022-07-30T04:42:10.047Z,4.00
2022-07-30T04:45:15.759Z,2.92
2022-07-30T04:48:33.008Z,2.70
2022-07-30T04:51:41.550Z,3.88
2022-07-30T04:54:50.365Z,4.70
2022-07-30T04:57:55.962Z,4.32
2022-07-30T05:01:01.202Z,2.35
2022-07-30T05:04:09.859Z,3.72
2022-07-30T05:07:18.368Z,4.60
2022-07-30T05:10:28.622Z,4.88
2022-07-30T05:13:38.276Z,6.68
2022-07-30T05:16:47.147Z,4.32
2022-07-30T05:19:52.749Z,6.15
2022-07-30T05:23:00.508Z,5.70
2022-07-30T05:26:05.635Z,2.08
2022-07-30T05:29:19.811Z,5.25
2022-07-30T05:32:36.905Z,3.17
2022-07-30T05:35:43.453Z,1.63
2022-07-30T05:38:51.375Z,1.77
2022-07-30T05:45:25.662Z,3.70
2022-07-30T05:48:31.670Z,1.73
2022-07-30T05:51:39.627Z,1.33
2022-07-30T05:54:47.218Z,2.47
2022-07-30T05:58:04.126Z,2.25
2022-07-30T06:01:09.346Z,2.33
2022-07-30T06:04:14.702Z,1.10
2022-07-30T06:07:24.476Z,1.00
2022-07-30T06:10:34.568Z,1.20
2022-07-30T06:13:40.649Z,3.30
2022-07-30T06:16:45.698Z,1.83
2022-07-30T06:19:51.563Z,1.55
2022-07-30T06:22:56.852Z,4.75
2022-07-30T06:26:12.767Z,3.47
2022-07-30T06:32:23.630Z,3.15
2022-07-30T06:35:28.889Z,3.25
2022-07-30T06:38:34.136Z,1.50
2022-07-30T06:41:50.501Z,6.78
2022-07-30T06:44:55.480Z,3.47
2022-07-30T06:48:02.795Z,5.32
2022-07-30T06:51:10.070Z,4.03
2022-07-30T06:54:17.137Z,1.65
2022-07-30T06:57:57.497Z,4.28
2022-07-30T07:01:23.972Z,3.70
2022-07-30T07:04:32.462Z,2.65
2022-07-30T07:07:42.392Z,3.75
2022-07-30T07:10:52.579Z,3.22
2022-07-30T07:14:09.159Z,1.83
2022-07-30T07:17:15.118Z,5.38
2022-07-30T07:20:35.684Z,1.75
2022-07-30T07:23:43.347Z,1.20
2022-07-30T07:27:15.513Z,1.75
2022-07-30T07:30:26.468Z,2.78
2022-07-30T07:33:31.789Z,2.85
2022-07-30T07:36:37.535Z,2.30
2022-07-30T07:39:42.634Z,5.10
2022-07-30T07:42:48.120Z,2.03
2022-07-30T07:49:05.470Z,2.83
2022-07-30T07:52:14.890Z,0.98
2022-07-30T07:55:21.473Z,1.08
2022-07-30T07:58:27.009Z,4.47
2022-07-30T08:01:36.158Z,1.38
2022-07-30T08:05:02.615Z,4.00
2022-07-30T08:08:32.214Z,2.17
2022-07-30T08:12:12.784Z,1.65
2022-07-30T08:15:47.006Z,2.80
2022-07-30T08:22:22.812Z,3.88
2022-07-30T08:25:28.344Z,1.83
2022-07-30T08:28:36.232Z,2.08
2022-07-30T08:31:43.241Z,1.17
2022-07-30T08:34:48.648Z,3.67
2022-07-30T08:37:56.387Z,1.70
2022-07-30T08:41:01.565Z,3.28
2022-07-30T08:44:12.589Z,1.40
2022-07-30T08:47:20.342Z,4.35
2022-07-30T08:50:48.880Z,3.58
2022-07-30T08:54:15.595Z,1.45
2022-07-30T09:00:25.761Z,2.22
2022-07-30T09:03:30.868Z,3.88
2022-07-30T09:06:41.115Z,2.55
2022-07-30T09:09:51.171Z,3.13
2022-07-30T09:12:56.402Z,3.00
2022-07-30T09:16:02.623Z,4.75
2022-07-30T09:19:16.625Z,2.97
2022-07-30T09:22:22.696Z,1.08
2022-07-30T09:25:51.570Z,1.90
2022-07-30T09:29:19.340Z,4.53
2022-07-30T09:32:52.442Z,1.70
2022-07-30T09:36:17.357Z,2.47
2022-07-30T09:39:59.407Z,0.98
2022-07-30T09:43:28.088Z,0.98
2022-07-30T09:46:48.010Z,2.05
2022-07-30T09:50:07.328Z,2.08
2022-07-30T09:53:13.056Z,1.35
2022-07-30T09:56:27.435Z,2.50
2022-07-30T09:59:39.365Z,2.70
2022-07-30T10:02:48.067Z,2.95
2022-07-30T10:06:12.292Z,1.85
2022-07-30T10:09:30.133Z,2.25
2022-07-30T10:12:35.793Z,4.53
2022-07-30T10:15:48.111Z,1.38
2022-07-30T10:18:53.331Z,2.95
2022-07-30T10:22:24.295Z,1.35
2022-07-30T10:25:55.103Z,2.20
2022-07-30T10:29:33.542Z,1.50
2022-07-30T10:32:43.609Z,2.25
2022-07-30T10:35:49.618Z,5.55
2022-07-30T10:38:55.815Z,3.13
2022-07-30T10:42:05.349Z,1.90
2022-07-30T10:45:29.386Z,3.40
2022-07-30T10:48:37.737Z,2.63
2022-07-30T10:51:46.461Z,1.27
2022-07-30T10:54:56.042Z,0.90
2022-07-30T10:58:02.961Z,1.15
2022-07-30T11:01:18.021Z,1.30
2022-07-30T11:04:29.758Z,1.20
2022-07-30T11:07:35.229Z,2.40
2022-07-30T11:10:43.982Z,3.00
2022-07-30T11:13:54.251Z,3.38
2022-07-30T11:17:04.117Z,1.50
2022-07-30T11:20:16.165Z,3.40
2022-07-30T11:23:36.472Z,1.38
2022-07-30T11:26:54.428Z,1.30
2022-07-30T11:30:00.154Z,2.47
2022-07-30T11:33:32.878Z,2.97
2022-07-30T11:37:01.474Z,2.30
2022-07-30T11:40:26.389Z,1.80
2022-07-30T11:43:37.148Z,1.40
2022-07-30T11:46:51.040Z,2.28
2022-07-30T11:49:57.719Z,1.95
2022-07-30T11:53:06.242Z,2.83
2022-07-30T11:56:13.970Z,7.90
2022-07-30T11:59:20.458Z,3.78
2022-07-30T12:02:29.685Z,2.85
2022-07-30T12:05:35.239Z,2.58
2022-07-30T12:08:45.468Z,3.75
2022-07-30T12:11:50.814Z,1.80
2022-07-30T12:14:59.025Z,5.00
2022-07-30T12:18:25.855Z,1.15
2022-07-30T12:21:32.061Z,1.50
2022-07-30T12:24:40.241Z,2.63
2022-07-30T12:27:52.161Z,1.60
2022-07-30T12:30:58.296Z,2.05
2022-07-30T12:34:03.565Z,1.90
2022-07-30T12:37:12.566Z,1.20
2022-07-30T12:40:20.293Z,1.65
2022-07-30T12:43:40.595Z,3.05
2022-07-30T12:46:45.940Z,3.45
2022-07-30T12:49:53.328Z,3.45
2022-07-30T12:52:58.955Z,1.77
2022-07-30T12:56:16.218Z,4.32
2022-07-30T12:59:24.105Z,2.47
2022-07-30T13:02:34.021Z,5.57
2022-07-30T13:05:50.511Z,2.17
2022-07-30T13:08:56.440Z,7.47
2022-07-30T13:12:04.507Z,4.15
2022-07-30T13:15:10.532Z,2.63
2022-07-30T13:18:16.033Z,2.00
2022-07-30T13:21:21.336Z,2.28
2022-07-30T13:24:26.939Z,2.28
2022-07-30T13:27:35.177Z,4.53
2022-07-30T13:30:40.565Z,4.20
2022-07-30T13:33:45.755Z,3.40
2022-07-30T13:36:51.072Z,1.48
2022-07-30T13:39:56.067Z,1.17
2022-07-30T13:43:04.051Z,1.58
2022-07-30T13:46:09.353Z,2.97
2022-07-30T13:49:14.364Z,1.55
2022-07-30T13:52:20.358Z,1.65
2022-07-30T13:55:25.732Z,1.55
2022-07-30T13:58:36.015Z,1.40
2022-07-30T14:01:41.406Z,2.28
2022-07-30T14:04:46.560Z,3.83
2022-07-30T14:07:51.705Z,2.30
2022-07-30T14:10:57.046Z,3.50
2022-07-30T14:14:04.813Z,2.70
2022-07-30T14:17:10.169Z,5.13
2022-07-30T14:20:15.179Z,4.05
2022-07-30T14:23:20.371Z,2.22
2022-07-30T14:26:25.495Z,3.17
2022-07-30T14:29:37.988Z,2.17
2022-07-30T14:35:47.930Z,2.67
2022-07-30T14:38:56.734Z,5.15
2022-07-30T14:42:01.953Z,2.63
2022-07-30T14:45:10.207Z,2.83
2022-07-30T14:48:15.414Z,6.70
2022-07-30T14:51:25.661Z,2.60
2022-07-30T14:54:31.767Z,3.05
2022-07-30T14:57:36.941Z,2.92
2022-07-30T15:00:49.031Z,2.63
2022-07-30T15:03:54.254Z,5.63
2022-07-30T15:06:59.691Z,6.93
2022-07-30T15:10:07.473Z,2.88
2022-07-30T15:13:12.865Z,10.07
2022-07-30T15:16:22.976Z,2.33
2022-07-30T15:19:28.132Z,4.47
2022-07-30T15:22:33.461Z,1.92
2022-07-30T15:25:38.731Z,2.60
2022-07-30T15:28:43.907Z,3.50
2022-07-30T15:31:51.851Z,3.45
2022-07-30T15:34:59.008Z,4.10
2022-07-30T15:38:04.235Z,2.85
2022-07-30T15:41:13.467Z,3.13
2022-07-30T15:44:19.515Z,0.90
2022-07-30T15:47:29.375Z,2.28
2022-07-30T15:50:34.338Z,2.92
2022-07-30T15:53:39.541Z,8.43
2022-07-30T15:56:45.877Z,2.17
2022-07-30T15:59:50.841Z,4.45
2022-07-30T16:03:00.030Z,4.32
2022-07-30T16:06:05.229Z,26.42
2022-07-30T16:09:10.432Z,1.80
2022-07-30T16:12:15.626Z,4.85
2022-07-30T16:15:21.308Z,5.82
2022-07-30T16:18:28.939Z,4.78
2022-07-30T16:21:34.101Z,2.67
2022-07-30T16:24:39.259Z,3.08
2022-07-30T16:27:44.464Z,1.67
2022-07-30T16:30:51.696Z,1.65
2022-07-30T16:33:59.925Z,4.25
2022-07-30T16:37:05.361Z,4.50
2022-07-30T16:40:11.275Z,4.18
2022-07-30T16:43:16.502Z,2.83
2022-07-30T16:46:25.311Z,1.90
2022-07-30T16:49:33.645Z,5.32
2022-07-30T16:52:39.339Z,1.35
2022-07-30T16:55:44.562Z,6.93
2022-07-30T16:58:49.569Z,3.45
2022-07-30T17:01:54.788Z,4.97
2022-07-30T17:05:02.614Z,3.92
2022-07-30T17:08:09.114Z,3.22
2022-07-30T17:11:46.584Z,7.43
2022-07-30T17:14:39.567Z,4.07
2022-07-30T17:17:44.797Z,5.07
2022-07-30T17:20:52.681Z,4.80
2022-07-30T17:23:57.871Z,5.95
2022-07-30T17:27:03.147Z,13.45
2022-07-30T17:30:09.481Z,6.90
2022-07-30T17:33:15.029Z,5.75
2022-07-30T17:36:22.946Z,8.43
2022-07-30T17:40:06.036Z,6.95
2022-07-30T17:42:52.962Z,10.32
2022-07-30T17:45:58.531Z,7.63
2022-07-30T17:49:03.910Z,5.70
2022-07-30T17:52:11.837Z,8.10
2022-07-30T17:55:17.027Z,34.05
2022-07-30T17:58:23.083Z,41.97
2022-07-30T18:01:28.351Z,45.15
2022-07-30T18:04:34.608Z,36.80
2022-07-30T18:07:42.273Z,32.25
2022-07-30T18:10:47.613Z,37.97
2022-07-30T18:13:52.599Z,23.42
2022-07-30T18:16:59.090Z,29.13
2022-07-30T18:20:04.563Z,34.70
2022-07-30T18:23:16.587Z,26.40
2022-07-30T18:26:21.779Z,31.20
2022-07-30T18:29:26.789Z,28.75
2022-07-30T18:32:31.894Z,22.75
2022-07-30T18:35:37.701Z,15.63
2022-07-30T18:38:49.884Z,24.35
2022-07-30T18:41:56.383Z,26.52
2022-07-30T18:45:01.755Z,17.33
2022-07-30T18:48:08.726Z,27.58
2022-07-30T18:51:14.227Z,17.20
2022-07-30T18:54:22.062Z,20.20
2022-07-30T18:57:27.246Z,20.08
2022-07-30T19:00:34.698Z,19.00
2022-07-30T19:03:40.909Z,22.75
2022-07-30T19:06:46.164Z,19.73
2022-07-30T19:09:55.679Z,18.80
2022-07-30T19:13:00.736Z,18.02
2022-07-30T19:16:06.043Z,28.88
2022-07-30T19:19:13.028Z,28.17
2022-07-30T19:22:18.168Z,41.45
2022-07-30T19:25:39.413Z,26.20
2022-07-30T19:28:44.565Z,25.17
2022-07-30T19:31:49.935Z,37.50
2022-07-30T19:34:55.190Z,23.98
2022-07-30T19:38:00.205Z,29.02
2022-07-30T19:41:07.816Z,27.15
2022-07-30T19:44:13.300Z,28.80
2022-07-30T19:47:26.325Z,28.10
2022-07-30T19:50:31.734Z,26.63
2022-07-30T19:53:37.311Z,30.17
2022-07-30T19:56:46.596Z,30.13
2022-07-30T19:59:59.548Z,31.38
2022-07-30T20:03:05.680Z,29.90
2022-07-30T20:06:14.524Z,21.52
2022-07-30T20:09:20.213Z,21.35
2022-07-30T20:12:28.346Z,16.60
2022-07-30T20:15:33.982Z,24.30
2022-07-30T20:18:39.815Z,21.58
2022-07-30T20:21:56.111Z,23.77
2022-07-30T20:25:02.964Z,21.58
2022-07-30T20:28:11.284Z,25.30
2022-07-30T20:31:16.686Z,28.08
2022-07-30T20:34:25.739Z,28.23
2022-07-30T20:37:31.368Z,25.70
2022-07-30T20:40:36.510Z,21.90
2022-07-30T20:43:51.817Z,20.15
2022-07-30T20:46:57.488Z,27.80
2022-07-30T20:50:05.415Z,18.93
2022-07-30T20:53:15.205Z,22.02
2022-07-30T20:56:20.643Z,22.27
2022-07-30T20:59:29.425Z,20.00
2022-07-30T21:02:35.137Z,18.52
2022-07-30T21:05:43.182Z,18.77
2022-07-30T21:08:48.319Z,26.88
2022-07-30T21:11:54.677Z,26.05
2022-07-30T21:15:02.515Z,20.85
2022-07-30T21:18:10.328Z,19.67
2022-07-30T21:21:15.641Z,22.00
2022-07-30T21:24:24.742Z,21.55
2022-07-30T21:27:30.113Z,18.77
2022-07-30T21:30:38.116Z,37.40
2022-07-30T21:33:44.082Z,22.20
2022-07-30T21:36:50.901Z,21.45
2022-07-30T21:39:56.340Z,16.35
2022-07-30T21:43:02.123Z,17.67
2022-07-30T21:49:43.052Z,19.48
2022-07-30T21:55:55.198Z,21.27
2022-07-30T21:59:00.346Z,19.20
2022-07-30T22:02:15.977Z,18.70
2022-07-30T22:05:38.926Z,33.72
2022-07-30T22:08:44.472Z,23.60
2022-07-30T22:11:54.385Z,22.13
2022-07-30T22:14:59.597Z,27.92
2022-07-30T22:18:09.302Z,23.67
2022-07-30T22:21:14.426Z,23.15
2022-07-30T22:24:29.916Z,24.80
2022-07-30T22:27:39.570Z,19.83
2022-07-30T22:30:46.214Z,27.13
2022-07-30T22:33:54.124Z,20.65
2022-07-30T22:36:59.499Z,17.13
2022-07-30T22:40:04.736Z,26.40
2022-07-30T22:43:12.815Z,24.25
2022-07-30T22:46:30.532Z,25.60
2022-07-30T22:49:46.587Z,19.25
2022-07-30T22:53:23.478Z,23.73
2022-07-30T22:56:25.701Z,18.40
2022-07-30T22:59:58.037Z,23.55
2022-07-30T23:02:56.170Z,25.30
2022-07-30T23:06:04.084Z,22.92
2022-07-30T23:09:11.854Z,25.63
2022-07-30T23:12:20.002Z,25.55
2022-07-30T23:12:27.670Z,25.40
2022-07-30T23:15:25.848Z,13.73
2022-07-30T23:18:30.970Z,19.27
2022-07-30T23:24:57.807Z,23.15
2022-07-30T23:28:02.953Z,20.48
2022-07-30T23:31:08.507Z,20.50
2022-07-30T23:34:13.633Z,16.52
2022-07-30T23:37:21.382Z,22.00
2022-07-30T23:40:26.518Z,20.33
2022-07-30T23:43:31.751Z,24.55
2022-07-30T23:46:37.384Z,15.52
2022-07-30T23:49:42.860Z,19.23
2022-07-30T23:52:50.705Z,20.30
2022-07-30T23:55:55.857Z,19.70
2022-07-30T23:59:00.964Z,23.25
